createdAt,value
2023-03-02T00:02:02.367Z,32.93
2023-03-02T00:04:40.340Z,33.93
2023-03-02T00:07:17.489Z,36.33
2023-03-02T00:09:45.289Z,33.53
2023-03-02T00:12:17.049Z,34.73
2023-03-02T00:14:45.616Z,33.60
2023-03-02T00:17:18.361Z,32.97
2023-03-02T00:19:45.583Z,32.40
2023-03-02T00:22:21.358Z,34.63
2023-03-02T00:24:51.050Z,33.97
2023-03-02T00:27:21.809Z,31.33
2023-03-02T00:29:49.595Z,33.97
2023-03-02T00:32:21.543Z,33.60
2023-03-02T00:34:48.249Z,33.10
2023-03-02T00:37:17.394Z,32.37
2023-03-02T00:39:46.548Z,36.70
2023-03-02T00:42:20.719Z,36.90
2023-03-02T00:44:48.705Z,36.53
2023-03-02T00:47:17.461Z,35.47
2023-03-02T00:49:50.309Z,36.97
2023-03-02T00:52:17.739Z,35.87
2023-03-02T00:54:44.744Z,33.83
2023-03-02T00:57:16.380Z,35.87
2023-03-02T00:59:47.071Z,34.97
2023-03-02T01:02:31.882Z,35.63
2023-03-02T01:04:58.703Z,37.20
2023-03-02T01:07:28.276Z,36.27
2023-03-02T01:09:56.325Z,35.80
2023-03-02T01:12:30.129Z,36.73
2023-03-02T01:14:57.329Z,35.27
2023-03-02T01:17:25.272Z,38.57
2023-03-02T01:19:52.573Z,40.43
2023-03-02T01:22:25.847Z,38.67
2023-03-02T01:24:55.113Z,38.20
2023-03-02T01:27:22.257Z,41.03
2023-03-02T01:29:51.985Z,44.97
2023-03-02T01:32:18.778Z,44.37
2023-03-02T01:34:48.512Z,40.67
2023-03-02T01:37:17.745Z,45.07
2023-03-02T01:39:55.072Z,42.60
2023-03-02T01:42:21.741Z,43.23
2023-03-02T01:44:52.396Z,43.63
2023-03-02T01:47:29.296Z,43.80
2023-03-02T01:50:23.106Z,44.10
2023-03-02T01:52:54.924Z,42.77
2023-03-02T01:55:26.573Z,44.10
2023-03-02T01:57:54.931Z,44.20
2023-03-02T02:00:29.280Z,43.43
2023-03-02T02:03:09.035Z,43.83
2023-03-02T02:05:40.707Z,41.53
2023-03-02T02:08:07.867Z,44.33
2023-03-02T02:10:38.321Z,45.70
2023-03-02T02:13:09.055Z,45.40
2023-03-02T02:15:38.982Z,43.23
2023-03-02T02:18:18.436Z,42.73
2023-03-02T02:20:48.883Z,46.60
2023-03-02T02:23:31.197Z,41.13
2023-03-02T02:26:08.877Z,40.77
2023-03-02T02:29:16.148Z,46.20
2023-03-02T02:32:15.909Z,42.93
2023-03-02T02:34:48.196Z,40.47
2023-03-02T02:37:22.270Z,43.57
2023-03-02T02:39:52.772Z,40.10
2023-03-02T02:42:32.278Z,42.47
2023-03-02T02:45:04.513Z,43.30
2023-03-02T02:47:38.311Z,44.10
2023-03-02T02:50:18.556Z,44.87
2023-03-02T02:52:48.634Z,42.40
2023-03-02T02:55:22.201Z,42.90
2023-03-02T02:57:53.580Z,45.57
2023-03-02T03:00:22.798Z,45.23
2023-03-02T03:02:54.601Z,41.93
2023-03-02T03:05:23.940Z,42.43
2023-03-02T03:07:55.877Z,41.63
2023-03-02T03:10:31.962Z,45.50
2023-03-02T03:13:04.014Z,42.43
2023-03-02T03:15:32.444Z,45.20
2023-03-02T03:17:59.467Z,45.17
2023-03-02T03:20:28.502Z,45.97
2023-03-02T03:22:55.474Z,47.27
2023-03-02T03:28:06.710Z,49.33
2023-03-02T03:30:34.509Z,47.13
2023-03-02T03:33:01.530Z,46.30
2023-03-02T03:35:28.585Z,50.70
2023-03-02T03:38:03.772Z,49.53
2023-03-02T03:43:16.384Z,47.67
2023-03-02T03:45:51.662Z,48.10
2023-03-02T03:48:19.538Z,45.73
2023-03-02T03:50:53.789Z,50.50
2023-03-02T03:53:27.687Z,48.47
2023-03-02T03:55:59.662Z,50.63
2023-03-02T03:58:28.930Z,49.80
2023-03-02T04:00:57.788Z,55.37
2023-03-02T04:03:27.803Z,50.27
2023-03-02T04:05:59.717Z,53.97
2023-03-02T04:08:26.453Z,48.73
2023-03-02T04:10:53.738Z,53.27
2023-03-02T04:13:21.986Z,52.87
2023-03-02T04:15:55.492Z,53.00
2023-03-02T04:18:22.639Z,52.47
2023-03-02T04:20:49.331Z,53.67
2023-03-02T04:23:18.469Z,52.70
2023-03-02T04:25:45.976Z,52.43
2023-03-02T04:28:22.377Z,57.00
2023-03-02T04:31:09.567Z,53.13
2023-03-02T04:33:36.671Z,56.87
2023-03-02T04:36:08.585Z,60.13
2023-03-02T04:38:48.045Z,58.43
2023-03-02T04:41:22.130Z,57.77
2023-03-02T04:43:49.303Z,58.40
2023-03-02T04:46:20.606Z,55.53
2023-03-02T04:48:49.575Z,54.93
2023-03-02T04:51:24.196Z,54.73
2023-03-02T04:53:56.171Z,57.83
2023-03-02T04:56:22.941Z,53.03
2023-03-02T04:58:49.964Z,56.63
2023-03-02T05:01:17.800Z,56.40
2023-03-02T05:03:48.201Z,55.67
2023-03-02T05:06:14.957Z,58.93
2023-03-02T05:08:44.741Z,54.60
2023-03-02T05:11:22.160Z,56.70
2023-03-02T05:14:19.966Z,56.60
2023-03-02T05:16:49.882Z,54.70
2023-03-02T05:19:19.057Z,59.37
2023-03-02T05:21:45.975Z,58.67
2023-03-02T05:24:15.072Z,61.13
2023-03-02T05:26:44.356Z,58.50
2023-03-02T05:29:12.342Z,59.33
2023-03-02T05:31:50.015Z,60.17
2023-03-02T05:34:20.060Z,56.90
2023-03-02T05:36:46.803Z,58.47
2023-03-02T05:39:13.782Z,57.03
2023-03-02T05:41:50.842Z,56.77
2023-03-02T05:44:20.239Z,56.73
2023-03-02T05:46:46.909Z,60.37
2023-03-02T05:49:16.371Z,60.67
2023-03-02T05:51:46.333Z,62.10
2023-03-02T05:54:20.894Z,53.30
2023-03-02T05:56:50.273Z,56.67
2023-03-02T05:59:26.341Z,54.07
2023-03-02T06:01:59.541Z,54.47
2023-03-02T06:04:26.435Z,58.97
2023-03-02T06:06:55.058Z,57.23
2023-03-02T06:09:24.758Z,59.43
2023-03-02T06:11:54.181Z,60.80
2023-03-02T06:14:24.194Z,59.17
2023-03-02T06:16:51.251Z,57.57
2023-03-02T06:19:21.901Z,59.50
2023-03-02T06:21:52.431Z,56.70
2023-03-02T06:24:19.444Z,60.20
2023-03-02T06:26:49.629Z,55.10
2023-03-02T06:29:19.084Z,53.33
2023-03-02T06:31:48.349Z,56.63
2023-03-02T06:34:16.049Z,58.10
2023-03-02T06:36:47.762Z,55.03
2023-03-02T06:39:19.824Z,55.50
2023-03-02T06:41:46.953Z,57.90
2023-03-02T06:44:14.279Z,57.33
2023-03-02T06:46:42.200Z,53.93
2023-03-02T06:49:13.922Z,56.70
2023-03-02T06:51:40.894Z,58.57
2023-03-02T06:54:08.323Z,72.63
2023-03-02T06:56:35.396Z,59.77
2023-03-02T06:59:02.176Z,221.53
2023-03-02T07:01:36.384Z,110.50
2023-03-02T07:04:03.848Z,76.73
2023-03-02T07:06:33.073Z,68.87
2023-03-02T07:09:02.791Z,59.57
2023-03-02T07:11:29.426Z,61.50
2023-03-02T07:13:55.999Z,60.83
2023-03-02T07:16:22.658Z,61.70
2023-03-02T07:18:52.366Z,55.97
2023-03-02T07:21:18.995Z,53.97
2023-03-02T07:23:46.913Z,53.73
2023-03-02T07:26:15.919Z,50.60
2023-03-02T07:28:44.462Z,50.50
2023-03-02T07:31:11.914Z,52.50
2023-03-02T07:33:39.472Z,54.33
2023-03-02T07:36:14.674Z,52.33
2023-03-02T07:38:41.460Z,53.97
2023-03-02T07:41:14.464Z,49.93
2023-03-02T07:43:43.885Z,45.50
2023-03-02T07:49:02.998Z,46.43
2023-03-02T07:51:35.405Z,45.83
2023-03-02T07:54:04.792Z,45.87
2023-03-02T07:56:33.727Z,44.97
2023-03-02T07:59:02.622Z,46.07
2023-03-02T08:01:32.122Z,45.23
2023-03-02T08:03:58.931Z,45.10
2023-03-02T08:06:27.965Z,46.60
2023-03-02T08:08:54.976Z,46.17
2023-03-02T08:11:27.665Z,48.73
2023-03-02T08:14:01.722Z,47.00
2023-03-02T08:16:28.683Z,48.73
2023-03-02T08:18:57.977Z,43.73
2023-03-02T08:21:26.933Z,46.33
2023-03-02T08:23:53.582Z,43.70
2023-03-02T08:26:20.748Z,44.37
2023-03-02T08:28:54.071Z,46.83
2023-03-02T08:31:24.095Z,45.83
2023-03-02T08:33:50.885Z,45.70
2023-03-02T08:36:18.879Z,44.63
2023-03-02T08:38:49.279Z,44.50
2023-03-02T08:41:19.543Z,44.60
2023-03-02T08:43:46.886Z,42.43
2023-03-02T08:46:15.128Z,43.67
2023-03-02T08:48:44.010Z,40.43
2023-03-02T08:51:16.949Z,45.50
2023-03-02T08:53:45.550Z,41.57
2023-03-02T08:56:20.049Z,43.27
2023-03-02T08:58:50.970Z,44.57
2023-03-02T09:01:27.384Z,43.83
2023-03-02T09:03:56.840Z,41.70
2023-03-02T09:06:28.774Z,44.57
2023-03-02T09:08:59.142Z,42.90
2023-03-02T09:11:26.603Z,43.97
2023-03-02T09:13:54.633Z,44.43
2023-03-02T09:16:26.655Z,45.53
2023-03-02T09:18:56.674Z,46.37
2023-03-02T09:21:23.965Z,41.47
2023-03-02T09:24:02.604Z,40.27
2023-03-02T09:26:30.370Z,44.07
2023-03-02T09:28:57.180Z,44.93
2023-03-02T09:31:24.212Z,41.87
2023-03-02T09:33:50.921Z,41.90
2023-03-02T09:36:24.409Z,43.10
2023-03-02T09:38:51.443Z,40.63
2023-03-02T09:41:21.047Z,40.97
2023-03-02T09:44:05.092Z,40.23
2023-03-02T09:46:53.641Z,39.97
2023-03-02T09:49:51.548Z,39.60
2023-03-02T09:52:30.521Z,42.97
2023-03-02T09:55:01.182Z,37.70
2023-03-02T09:57:34.794Z,39.57
2023-03-02T10:00:19.573Z,36.80
2023-03-02T10:02:54.520Z,39.23
2023-03-02T10:05:36.434Z,39.03
2023-03-02T10:08:03.098Z,39.13
2023-03-02T10:10:44.457Z,33.03
2023-03-02T10:13:15.766Z,35.27
2023-03-02T10:16:14.983Z,34.87
2023-03-02T10:19:06.803Z,39.60
2023-03-02T10:21:40.893Z,34.43
2023-03-02T10:24:32.944Z,34.30
2023-03-02T10:27:17.718Z,38.33
2023-03-02T10:30:06.512Z,37.17
2023-03-02T10:32:44.108Z,34.60
2023-03-02T10:35:15.117Z,36.17
2023-03-02T10:37:43.988Z,37.07
2023-03-02T10:40:26.584Z,35.97
2023-03-02T10:43:03.916Z,35.83
2023-03-02T10:45:35.052Z,36.43
2023-03-02T10:48:06.433Z,38.07
2023-03-02T10:50:33.473Z,39.50
2023-03-02T10:53:10.103Z,36.93
2023-03-02T10:55:45.148Z,38.40
2023-03-02T10:58:35.898Z,36.40
2023-03-02T11:01:07.293Z,37.37
2023-03-02T11:03:34.096Z,35.93
2023-03-02T11:06:18.824Z,36.70
2023-03-02T11:08:57.440Z,38.33
2023-03-02T11:11:27.091Z,38.50
2023-03-02T11:13:56.408Z,37.13
2023-03-02T11:16:31.202Z,37.67
2023-03-02T11:19:18.839Z,39.40
2023-03-02T11:22:05.498Z,34.63
2023-03-02T11:24:51.136Z,35.40
2023-03-02T11:27:39.019Z,33.50
2023-03-02T11:30:27.083Z,34.87
2023-03-02T11:33:17.181Z,34.57
2023-03-02T11:35:55.846Z,35.60
2023-03-02T11:38:41.694Z,32.53
2023-03-02T11:41:33.072Z,33.83
2023-03-02T11:44:10.922Z,28.67
2023-03-02T11:46:42.006Z,30.97
2023-03-02T11:49:16.644Z,32.73
2023-03-02T11:51:58.488Z,33.70
2023-03-02T11:54:44.101Z,30.03
2023-03-02T11:57:24.052Z,30.07
2023-03-02T11:59:53.877Z,29.87
2023-03-02T12:02:23.426Z,29.20
2023-03-02T12:05:01.160Z,34.37
2023-03-02T12:07:28.069Z,29.60
2023-03-02T12:10:26.186Z,32.20
2023-03-02T12:13:26.434Z,28.63
2023-03-02T12:15:58.855Z,28.13
2023-03-02T12:18:27.771Z,26.97
2023-03-02T12:21:06.756Z,31.97
2023-03-02T12:23:47.504Z,27.40
2023-03-02T12:26:23.068Z,24.27
2023-03-02T12:29:05.043Z,25.17
2023-03-02T12:31:50.306Z,26.57
2023-03-02T12:34:35.897Z,27.30
2023-03-02T12:37:17.949Z,27.00
2023-03-02T12:40:16.883Z,25.27
2023-03-02T12:43:22.469Z,24.80
2023-03-02T12:46:23.025Z,24.30
2023-03-02T12:49:25.029Z,25.90
2023-03-02T12:52:02.741Z,26.83
2023-03-02T12:54:36.857Z,25.23
2023-03-02T12:57:16.964Z,27.00
2023-03-02T12:59:50.803Z,26.07
2023-03-02T13:02:20.430Z,24.13
2023-03-02T13:04:58.142Z,20.47
2023-03-02T13:07:50.055Z,21.73
2023-03-02T13:10:31.093Z,26.83
2023-03-02T13:12:59.589Z,23.23
2023-03-02T13:15:27.603Z,23.93
2023-03-02T13:18:00.475Z,23.93
2023-03-02T13:20:31.210Z,22.97
2023-03-02T13:23:03.171Z,24.30
2023-03-02T13:25:31.258Z,21.57
2023-03-02T13:28:10.086Z,19.83
2023-03-02T13:30:47.822Z,19.67
2023-03-02T13:33:21.434Z,20.50
2023-03-02T13:35:55.570Z,20.23
2023-03-02T13:38:24.151Z,21.83
2023-03-02T13:40:53.261Z,21.77
2023-03-02T13:43:26.298Z,20.73
2023-03-02T13:45:59.855Z,20.80
2023-03-02T13:48:29.695Z,22.17
2023-03-02T13:51:03.497Z,20.17
2023-03-02T13:53:34.302Z,21.50
2023-03-02T13:56:04.835Z,20.53
2023-03-02T13:58:46.098Z,19.70
2023-03-02T14:01:15.987Z,21.27
2023-03-02T14:03:45.619Z,20.63
2023-03-02T14:06:18.479Z,18.70
2023-03-02T14:08:46.716Z,21.30
2023-03-02T14:11:17.292Z,18.93
2023-03-02T14:13:47.741Z,20.00
2023-03-02T14:16:17.493Z,18.60
2023-03-02T14:18:57.453Z,21.60
2023-03-02T14:21:37.508Z,19.40
2023-03-02T14:24:07.865Z,19.70
2023-03-02T14:26:37.505Z,20.23
2023-03-02T14:29:10.625Z,21.13
2023-03-02T14:31:40.288Z,25.03
2023-03-02T14:34:12.099Z,21.23
2023-03-02T14:36:39.942Z,21.77
2023-03-02T14:39:20.092Z,19.33
2023-03-02T14:41:54.843Z,16.50
2023-03-02T14:44:26.065Z,17.50
2023-03-02T14:46:53.129Z,16.57
2023-03-02T14:49:22.624Z,16.97
2023-03-02T14:52:06.683Z,19.57
2023-03-02T14:54:45.102Z,15.53
2023-03-02T14:57:27.760Z,16.83
2023-03-02T14:59:56.183Z,17.67
2023-03-02T15:02:27.153Z,17.20
2023-03-02T15:04:57.130Z,15.17
2023-03-02T15:07:27.812Z,15.67
2023-03-02T15:09:56.240Z,16.27
2023-03-02T15:12:32.137Z,16.83
2023-03-02T15:14:59.382Z,14.43
2023-03-02T15:17:26.114Z,14.20
2023-03-02T15:19:55.267Z,14.83
2023-03-02T15:22:22.313Z,10.87
2023-03-02T15:24:49.262Z,10.70
2023-03-02T15:27:15.960Z,11.90
2023-03-02T15:29:48.108Z,11.90
2023-03-02T15:32:15.112Z,14.77
2023-03-02T15:34:44.008Z,11.80
2023-03-02T15:37:11.853Z,11.53
2023-03-02T15:39:40.717Z,9.90
2023-03-02T15:42:07.810Z,18.87
2023-03-02T15:44:34.485Z,12.43
2023-03-02T15:47:01.331Z,9.03
2023-03-02T15:49:32.070Z,10.40
2023-03-02T15:51:59.095Z,9.30
2023-03-02T15:54:26.931Z,8.83
2023-03-02T15:56:54.949Z,10.03
2023-03-02T15:59:23.962Z,10.77
2023-03-02T16:01:52.242Z,9.00
2023-03-02T16:04:22.108Z,10.33
2023-03-02T16:06:50.648Z,8.83
2023-03-02T16:09:31.128Z,9.57
2023-03-02T16:11:59.481Z,30.10
2023-03-02T16:14:29.122Z,34.33
2023-03-02T16:16:55.940Z,37.17
2023-03-02T16:19:28.247Z,27.30
2023-03-02T16:21:57.547Z,14.40
2023-03-02T16:24:24.763Z,13.40
2023-03-02T16:26:54.882Z,11.00
2023-03-02T16:29:25.082Z,10.93
2023-03-02T16:31:53.706Z,10.50
2023-03-02T16:34:23.008Z,8.10
2023-03-02T16:36:51.685Z,9.10
2023-03-02T16:39:26.705Z,11.73
2023-03-02T16:41:53.832Z,13.47
2023-03-02T16:44:23.139Z,12.57
2023-03-02T16:46:57.831Z,13.33
2023-03-02T16:49:33.687Z,15.23
2023-03-02T16:52:01.527Z,14.53
2023-03-02T16:54:28.187Z,13.43
2023-03-02T16:56:54.912Z,16.17
2023-03-02T16:59:24.491Z,13.50
2023-03-02T17:01:51.326Z,17.37
2023-03-02T17:04:18.729Z,18.43
2023-03-02T17:06:59.903Z,24.73
2023-03-02T17:09:28.104Z,37.40
2023-03-02T17:11:54.847Z,52.00
2023-03-02T17:14:21.599Z,53.73
2023-03-02T17:16:51.701Z,52.50
2023-03-02T17:19:18.386Z,54.00
2023-03-02T17:21:47.927Z,47.73
2023-03-02T17:24:16.762Z,42.43
2023-03-02T17:26:44.006Z,35.23
2023-03-02T17:29:10.926Z,34.17
2023-03-02T17:31:38.136Z,29.80
2023-03-02T17:36:55.118Z,20.07
2023-03-02T17:39:23.058Z,17.10
2023-03-02T17:41:51.276Z,16.50
2023-03-02T17:44:19.408Z,13.53
2023-03-02T17:46:46.316Z,12.70
2023-03-02T17:49:14.513Z,14.27
2023-03-02T17:51:41.168Z,11.27
2023-03-02T17:54:14.958Z,12.73
2023-03-02T17:56:41.768Z,14.33
2023-03-02T17:59:08.430Z,12.70
2023-03-02T18:01:40.673Z,13.43
2023-03-02T18:04:09.344Z,15.50
2023-03-02T18:06:39.084Z,15.47
2023-03-02T18:09:08.617Z,13.13
2023-03-02T18:11:35.464Z,15.20
2023-03-02T18:14:04.149Z,16.87
2023-03-02T18:16:31.015Z,14.30
2023-03-02T18:18:57.799Z,16.97
2023-03-02T18:21:24.458Z,19.17
2023-03-02T18:23:55.096Z,18.20
2023-03-02T18:26:23.161Z,19.87
2023-03-02T18:28:51.123Z,23.97
2023-03-02T18:31:19.621Z,19.90
2023-03-02T18:33:47.241Z,23.83
2023-03-02T18:36:16.260Z,16.53
2023-03-02T18:38:43.121Z,15.07
2023-03-02T18:41:12.885Z,16.33
2023-03-02T18:43:41.048Z,18.23
2023-03-02T18:46:10.495Z,16.70
2023-03-02T18:48:44.814Z,15.53
2023-03-02T18:51:11.519Z,14.50
2023-03-02T18:53:39.460Z,13.83
2023-03-02T18:56:09.335Z,17.67
2023-03-02T18:58:36.277Z,14.17
2023-03-02T19:03:49.484Z,11.43
2023-03-02T19:06:20.537Z,10.17
2023-03-02T19:08:48.221Z,9.53
2023-03-02T19:11:17.998Z,8.40
2023-03-02T19:13:50.060Z,15.83
2023-03-02T19:16:19.293Z,13.33
2023-03-02T19:18:51.133Z,25.57
2023-03-02T19:21:20.357Z,18.80
2023-03-02T19:23:49.086Z,17.40
2023-03-02T19:26:21.942Z,15.87
2023-03-02T19:28:49.131Z,13.37
2023-03-02T19:31:16.017Z,13.10
2023-03-02T19:33:45.255Z,16.30
2023-03-02T19:36:20.037Z,15.07
2023-03-02T19:38:50.780Z,15.03
2023-03-02T19:41:21.134Z,12.43
2023-03-02T19:43:48.357Z,13.30
2023-03-02T19:46:16.109Z,12.50
2023-03-02T19:48:43.452Z,14.47
2023-03-02T19:51:13.675Z,13.53
2023-03-02T19:53:41.172Z,12.37
2023-03-02T19:56:13.162Z,13.17
2023-03-02T19:58:50.031Z,14.43
2023-03-02T20:01:27.141Z,15.57
2023-03-02T20:03:55.885Z,13.00
2023-03-02T20:06:27.139Z,11.67
2023-03-02T20:08:56.754Z,14.50
2023-03-02T20:11:25.157Z,15.80
2023-03-02T20:13:52.777Z,15.60
2023-03-02T20:16:22.901Z,13.57
2023-03-02T20:18:53.191Z,14.93
2023-03-02T20:21:19.931Z,14.53
2023-03-02T20:23:49.977Z,13.03
2023-03-02T20:26:21.309Z,17.23
2023-03-02T20:28:50.810Z,14.70
2023-03-02T20:31:17.810Z,15.27
2023-03-02T20:33:52.850Z,15.03
2023-03-02T20:36:30.344Z,15.77
2023-03-02T20:39:14.088Z,42.60
2023-03-02T20:41:41.192Z,27.13
2023-03-02T20:44:14.474Z,24.47
2023-03-02T20:46:46.129Z,21.73
2023-03-02T20:49:15.423Z,22.97
2023-03-02T20:51:49.291Z,20.83
2023-03-02T20:54:18.133Z,21.43
2023-03-02T20:56:47.071Z,21.10
2023-03-02T20:59:14.291Z,20.23
2023-03-02T21:01:49.996Z,20.90
2023-03-02T21:04:23.375Z,21.77
2023-03-02T21:06:53.077Z,19.87
2023-03-02T21:09:23.066Z,19.83
2023-03-02T21:11:50.728Z,21.73
2023-03-02T21:14:17.535Z,21.40
2023-03-02T21:16:46.457Z,25.43
2023-03-02T21:19:16.497Z,23.47
2023-03-02T21:21:46.248Z,27.40
2023-03-02T21:24:21.190Z,23.10
2023-03-02T21:26:53.070Z,23.60
2023-03-02T21:29:21.439Z,22.67
2023-03-02T21:31:50.132Z,25.33
2023-03-02T21:34:24.887Z,21.27
2023-03-02T21:36:53.748Z,21.53
2023-03-02T21:39:25.885Z,20.67
2023-03-02T21:41:54.503Z,21.80
2023-03-02T21:44:21.585Z,21.97
2023-03-02T21:46:48.431Z,21.07
2023-03-02T21:49:17.701Z,21.57
2023-03-02T21:51:53.344Z,20.27
2023-03-02T21:54:20.208Z,22.23
2023-03-02T21:56:49.508Z,21.37
2023-03-02T21:59:16.231Z,21.47
2023-03-02T22:01:53.240Z,20.93
2023-03-02T22:04:21.523Z,23.23
2023-03-02T22:06:50.709Z,22.50
2023-03-02T22:09:17.737Z,21.80
2023-03-02T22:11:44.861Z,22.27
2023-03-02T22:14:15.694Z,23.13
2023-03-02T22:16:47.899Z,20.97
2023-03-02T22:19:26.986Z,21.83
2023-03-02T22:21:58.654Z,20.67
2023-03-02T22:24:30.358Z,20.20
2023-03-02T22:27:08.112Z,20.93
2023-03-02T22:29:54.259Z,22.20
2023-03-02T22:32:35.642Z,24.40
2023-03-02T22:35:13.113Z,21.53
2023-03-02T22:37:40.481Z,22.17
2023-03-02T22:40:19.151Z,21.10
2023-03-02T22:42:45.867Z,21.73
2023-03-02T22:45:18.972Z,21.63
2023-03-02T22:47:51.317Z,24.03
2023-03-02T22:50:30.057Z,21.83
2023-03-02T22:53:00.601Z,21.90
2023-03-02T22:55:37.739Z,23.33
2023-03-02T22:58:36.625Z,22.17
2023-03-02T23:01:30.538Z,20.73
2023-03-02T23:04:09.769Z,21.43
2023-03-02T23:06:45.332Z,23.43
2023-03-02T23:09:20.541Z,22.57
2023-03-02T23:11:48.164Z,23.37
2023-03-02T23:14:27.432Z,22.53
2023-03-02T23:17:01.849Z,21.93
2023-03-02T23:19:31.941Z,22.87
2023-03-02T23:22:03.708Z,23.70
2023-03-02T23:24:30.738Z,21.97
2023-03-02T23:27:17.568Z,22.03
2023-03-02T23:29:48.357Z,23.40
2023-03-02T23:32:16.663Z,22.53
2023-03-02T23:34:45.525Z,24.60
2023-03-02T23:37:14.556Z,25.70
2023-03-02T23:39:46.228Z,24.37
2023-03-02T23:42:19.589Z,23.43
2023-03-02T23:44:50.816Z,23.67
2023-03-02T23:47:19.821Z,24.17
2023-03-02T23:49:49.456Z,21.20
2023-03-02T23:52:21.005Z,25.40
2023-03-02T23:54:53.920Z,21.80
2023-03-02T23:57:21.631Z,23.43
2023-03-02T23:59:55.549Z,25.70
